Time;durP1;ratioP1;P1;durP2;ratioP2;P2;SDS_P1;SDS_P2;PMS_P1;PMS_P2;Temp;Humidity;BMP_temperature;BMP_pressure;BME280_temperature;BME280_humidity;BME280_pressure;Samples;Min_cycle;Max_cycle;Signal;HPM_P1;HPM_P2
2022/09/13 00:01:08;;;;;;;17.77;11.63;;;19.30;68.40;;;;;;9180236;19;20463;-63
2022/09/13 00:04:12;;;;;;;16.38;10.65;;;19.30;68.50;;;;;;9182870;19;20531;-62
2022/09/13 00:07:18;;;;;;;29.77;12.35;;;19.30;68.50;;;;;;9180108;19;20014;-64
2022/09/13 00:10:22;;;;;;;21.30;12.25;;;19.30;68.60;;;;;;9179812;19;20743;-63
2022/09/13 00:13:25;;;;;;;;;;;19.30;68.60;;;;;;9181126;19;20014;-62
2022/09/13 00:16:30;;;;;;;25.88;11.43;;;19.40;68.60;;;;;;9182921;19;19922;-64
2022/09/13 00:19:34;;;;;;;20.75;11.98;;;19.40;68.60;;;;;;9182944;19;20025;-63
2022/09/13 00:22:40;;;;;;;20.83;11.93;;;19.30;68.60;;;;;;9182794;19;20035;-63
2022/09/13 00:25:44;;;;;;;23.55;13.00;;;19.30;68.70;;;;;;9182205;19;20044;-63
2022/09/13 00:28:50;;;;;;;19.50;12.32;;;19.30;68.70;;;;;;9181823;19;20703;-62
2022/09/13 00:31:54;;;;;;;19.83;11.77;;;19.30;68.80;;;;;;9182072;19;20013;-63
2022/09/13 00:34:57;;;;;;;;;;;19.40;69.00;;;;;;9174281;19;20487;-64
2022/09/13 00:38:03;;;;;;;19.00;12.40;;;19.30;68.80;;;;;;9180347;19;20276;-63
2022/09/13 00:41:11;;;;;;;23.70;12.88;;;19.30;68.80;;;;;;9179759;19;20014;-63
2022/09/13 00:44:58;;;;;;;16.88;11.90;;;19.40;69.00;;;;;;9181476;19;20770;-62
2022/09/13 00:48:06;;;;;;;16.55;12.05;;;19.40;69.40;;;;;;9179007;19;20047;-65
2022/09/13 00:51:11;;;;;;;20.73;13.35;;;19.40;69.20;;;;;;9182233;19;20017;-63
2022/09/13 00:54:21;;;;;;;19.45;13.43;;;19.40;69.30;;;;;;9180030;19;20021;-63
2022/09/13 00:57:26;;;;;;;19.90;13.32;;;19.40;69.50;;;;;;9178792;19;20018;-63
2022/09/13 01:00:30;;;;;;;24.45;13.68;;;19.40;69.50;;;;;;9181553;19;20449;-63
2022/09/13 01:03:36;;;;;;;22.00;13.70;;;19.40;69.70;;;;;;9180211;19;20022;-64
2022/09/13 01:06:42;;;;;;;19.13;12.30;;;19.40;69.70;;;;;;9179151;19;20035;-64
2022/09/13 01:09:52;;;;;;;21.83;12.75;;;19.40;69.80;;;;;;9178304;19;20039;-62
2022/09/13 01:13:00;;;;;;;22.30;13.13;;;19.40;69.90;;;;;;9180221;19;20475;-63
2022/09/13 01:16:04;;;;;;;26.17;12.55;;;19.40;69.90;;;;;;9177776;19;20018;-63
2022/09/13 01:19:08;;;;;;;22.13;14.07;;;19.40;69.90;;;;;;9180542;19;20075;-64
2022/09/13 01:22:44;;;;;;;21.45;14.55;;;19.40;70.00;;;;;;9180598;19;20039;-63
2022/09/13 01:26:30;;;;;;;27.08;14.57;;;19.40;70.30;;;;;;9179930;19;20516;-63
2022/09/13 01:30:03;;;;;;;22.02;13.02;;;19.40;70.30;;;;;;9177309;19;20507;-63
2022/09/13 01:33:31;;;;;;;23.77;14.10;;;19.40;70.30;;;;;;9179851;19;20023;-63
2022/09/13 01:36:51;;;;;;;21.25;13.23;;;19.40;70.30;;;;;;9174183;19;20051;-63
2022/09/13 01:40:10;;;;;;;20.67;13.68;;;19.40;70.30;;;;;;9179985;19;20014;-63
2022/09/13 01:43:26;;;;;;;20.40;13.60;;;19.40;70.40;;;;;;9180133;19;20045;-65
2022/09/13 01:46:38;;;;;;;18.52;13.13;;;19.40;70.40;;;;;;9183568;19;20015;-64
2022/09/13 01:49:49;;;;;;;20.60;12.52;;;19.40;70.40;;;;;;9187363;19;20506;-63
2022/09/13 01:52:57;;;;;;;23.10;13.48;;;19.40;70.40;;;;;;9186227;19;20085;-65
2022/09/13 01:56:06;;;;;;;17.88;12.93;;;19.40;70.40;;;;;;9185829;19;20014;-64
2022/09/13 01:59:16;;;;;;;22.73;14.45;;;19.40;70.50;;;;;;9185214;19;20082;-63
2022/09/13 02:02:27;;;;;;;22.02;14.05;;;19.30;70.50;;;;;;9187733;19;20013;-63
2022/09/13 02:05:36;;;;;;;20.73;13.80;;;19.30;70.60;;;;;;9186967;19;20018;-63
2022/09/13 02:08:44;;;;;;;20.25;13.73;;;19.30;70.60;;;;;;9185521;19;20021;-65
2022/09/13 02:11:51;;;;;;;22.20;12.95;;;19.30;70.60;;;;;;9185325;19;20014;-64
2022/09/13 02:15:00;;;;;;;19.15;13.32;;;19.20;70.60;;;;;;9183484;19;20018;-64
2022/09/13 02:18:10;;;;;;;19.40;13.43;;;19.20;70.70;;;;;;9186028;19;20486;-65
2022/09/13 02:21:16;;;;;;;23.73;13.90;;;19.20;70.80;;;;;;9185790;19;20356;-66
2022/09/13 02:24:25;;;;;;;22.85;13.95;;;19.20;70.80;;;;;;9185816;19;20396;-63
2022/09/13 02:27:34;;;;;;;21.98;13.55;;;19.10;70.90;;;;;;9185417;19;20018;-65
2022/09/13 02:30:44;;;;;;;21.30;14.35;;;19.10;70.90;;;;;;9185768;19;20094;-63
2022/09/13 02:33:54;;;;;;;23.60;13.80;;;19.10;71.00;;;;;;9185427;19;20014;-64
2022/09/13 02:36:59;;;;;;;18.92;13.52;;;19.00;71.00;;;;;;9180768;19;20470;-64
2022/09/13 02:40:08;;;;;;;22.65;14.15;;;19.00;71.10;;;;;;9186391;19;20019;-63
2022/09/13 02:43:17;;;;;;;20.38;14.13;;;19.00;71.20;;;;;;9185028;19;20357;-64
2022/09/13 02:46:34;;;;;;;24.25;14.32;;;19.00;71.30;;;;;;9185681;19;20098;-64
2022/09/13 02:49:50;;;;;;;23.50;14.77;;;19.00;71.50;;;;;;9183421;19;20089;-64
2022/09/13 02:53:03;;;;;;;24.23;15.15;;;19.00;71.50;;;;;;9185319;19;20082;-64
2022/09/13 02:56:15;;;;;;;23.50;15.32;;;18.90;71.40;;;;;;9182489;19;20474;-64
2022/09/13 02:59:21;;;;;;;23.20;15.23;;;18.90;71.50;;;;;;9184840;19;20363;-65
2022/09/13 03:02:30;;;;;;;23.48;15.63;;;18.90;71.50;;;;;;9185679;19;20456;-64
2022/09/13 03:05:36;;;;;;;23.55;15.43;;;18.90;71.60;;;;;;9184792;19;20102;-63
2022/09/13 03:08:40;;;;;;;24.45;15.73;;;18.90;71.60;;;;;;9181917;19;20022;-65
2022/09/13 03:12:02;;;;;;;25.48;16.00;;;18.90;71.70;;;;;;9185534;19;20463;-62
2022/09/13 03:15:14;;;;;;;23.13;15.23;;;18.90;71.90;;;;;;9182775;19;20455;-65
2022/09/13 03:18:31;;;;;;;25.17;15.50;;;18.90;71.80;;;;;;9184558;19;20014;-63
2022/09/13 03:21:50;;;;;;;27.67;15.98;;;18.90;71.90;;;;;;9184055;19;20090;-64
2022/09/13 03:25:06;;;;;;;29.77;17.00;;;18.90;72.00;;;;;;9184461;19;20025;-64
2022/09/13 03:28:21;;;;;;;25.30;15.98;;;18.90;72.00;;;;;;9184383;19;20018;-64
2022/09/13 03:31:32;;;;;;;28.77;16.88;;;18.90;72.00;;;;;;9183454;19;20015;-64
2022/09/13 03:34:44;;;;;;;30.55;18.23;;;18.90;72.10;;;;;;9178204;19;20032;-64
2022/09/13 03:37:59;;;;;;;27.40;17.10;;;18.90;72.10;;;;;;9183792;19;20509;-64
2022/09/13 03:41:09;;;;;;;26.33;16.77;;;18.90;72.20;;;;;;9183638;19;20015;-64
2022/09/13 03:44:15;;;;;;;26.77;17.10;;;18.90;72.10;;;;;;9183752;19;20455;-63
2022/09/13 03:47:20;;;;;;;26.27;16.70;;;18.90;72.20;;;;;;9178491;19;20022;-63
2022/09/13 03:50:26;;;;;;;27.17;17.40;;;18.90;72.20;;;;;;9182423;19;20021;-64
2022/09/13 03:53:33;;;;;;;24.63;15.93;;;18.90;72.30;;;;;;9182976;19;20007;-64
2022/09/13 03:56:36;;;;;;;27.95;16.88;;;18.80;72.20;;;;;;9180236;19;20040;-64
2022/09/13 03:59:45;;;;;;;27.15;17.52;;;18.90;72.40;;;;;;9183766;19;20014;-64
2022/09/13 04:02:49;;;;;;;27.10;17.10;;;18.90;72.40;;;;;;9183178;19;20007;-64
2022/09/13 04:05:53;;;;;;;28.17;17.88;;;18.90;72.40;;;;;;9181048;19;20070;-65
2022/09/13 04:08:59;;;;;;;29.13;19.20;;;18.90;72.50;;;;;;9180026;19;20980;-64
2022/09/13 04:12:03;;;;;;;26.38;18.55;;;18.90;73.20;;;;;;9181549;19;20421;-66
2022/09/13 04:15:09;;;;;;;28.40;17.35;;;18.90;72.60;;;;;;9181626;19;20011;-64
2022/09/13 04:18:12;;;;;;;30.40;17.13;;;18.90;72.60;;;;;;9182866;19;20411;-64
2022/09/13 04:21:17;;;;;;;29.58;18.67;;;18.90;72.60;;;;;;9182396;19;20029;-64
2022/09/13 04:24:26;;;;;;;29.40;17.73;;;18.90;72.60;;;;;;9182101;19;20540;-64
2022/09/13 04:27:30;;;;;;;28.17;17.92;;;18.90;72.80;;;;;;9182111;19;20081;-65
2022/09/13 04:30:33;;;;;;;27.92;17.33;;;18.90;72.70;;;;;;9182585;19;20491;-64
2022/09/13 04:33:37;;;;;;;27.85;17.55;;;18.90;72.80;;;;;;9182751;19;20018;-63
2022/09/13 04:36:41;;;;;;;30.02;18.50;;;18.90;72.80;;;;;;9172440;19;20019;-65
2022/09/13 04:39:46;;;;;;;27.83;18.10;;;18.90;72.90;;;;;;9181914;19;20031;-64
2022/09/13 04:42:50;;;;;;;29.00;17.33;;;18.90;72.90;;;;;;9179092;19;20029;-63
2022/09/13 04:45:54;;;;;;;31.92;17.75;;;18.90;72.90;;;;;;9182597;19;20085;-64
2022/09/13 04:48:58;;;;;;;34.15;18.30;;;18.90;72.90;;;;;;9180977;19;20019;-64
2022/09/13 04:52:01;;;;;;;29.63;18.50;;;18.90;73.00;;;;;;9181419;19;20029;-64
2022/09/13 04:55:08;;;;;;;28.98;17.13;;;18.90;73.00;;;;;;9179533;19;20490;-65
2022/09/13 04:58:12;;;;;;;32.55;18.58;;;18.90;73.00;;;;;;9180403;19;20019;-64
2022/09/13 05:01:16;;;;;;;25.92;16.85;;;18.90;73.10;;;;;;9180058;19;20018;-65
2022/09/13 05:04:19;;;;;;;28.45;17.80;;;18.90;73.10;;;;;;9180844;19;20049;-66
2022/09/13 05:07:23;;;;;;;29.23;18.00;;;18.90;73.10;;;;;;9180274;19;20006;-63
2022/09/13 05:10:29;;;;;;;29.83;18.10;;;18.90;73.20;;;;;;9180258;19;20014;-64
2022/09/13 05:13:33;;;;;;;28.70;18.00;;;19.00;73.20;;;;;;9180342;19;20435;-64
2022/09/13 05:16:37;;;;;;;32.50;19.05;;;19.00;73.30;;;;;;9176764;19;20018;-64
2022/09/13 05:19:40;;;;;;;28.27;17.67;;;18.90;73.20;;;;;;9177517;19;20017;-64
2022/09/13 05:22:44;;;;;;;30.52;18.30;;;18.90;73.30;;;;;;9180611;19;20386;-64
2022/09/13 05:25:53;;;;;;;33.05;19.30;;;18.90;73.30;;;;;;9180344;19;20552;-64
2022/09/13 05:28:57;;;;;;;31.67;18.75;;;18.90;73.50;;;;;;9180295;19;20014;-64
2022/09/13 05:32:01;;;;;;;28.98;18.92;;;19.00;73.50;;;;;;9179358;19;20022;-64
2022/09/13 05:35:05;;;;;;;31.35;18.98;;;18.90;73.50;;;;;;9172749;19;20021;-65
2022/09/13 05:38:09;;;;;;;34.45;19.10;;;19.00;73.60;;;;;;9178028;19;20380;-64
2022/09/13 05:41:15;;;;;;;32.22;18.20;;;19.00;73.60;;;;;;9177421;19;20014;-64
2022/09/13 05:44:18;;;;;;;33.10;18.35;;;19.00;73.70;;;;;;9179752;19;20090;-65
2022/09/13 05:47:22;;;;;;;36.00;18.10;;;19.00;73.70;;;;;;9179111;19;20020;-63
2022/09/13 05:50:26;;;;;;;28.45;18.48;;;19.00;73.70;;;;;;9179905;19;20090;-65
2022/09/13 05:53:52;;;;;;;33.58;18.27;;;19.00;73.70;;;;;;9179255;19;20021;-63
2022/09/13 05:56:57;;;;;;;33.00;19.15;;;19.00;73.80;;;;;;9174757;19;20362;-65
2022/09/13 06:00:01;;;;;;;30.90;17.25;;;19.00;73.80;;;;;;9179185;19;20465;-64
2022/09/13 06:03:05;;;;;;;32.80;17.90;;;19.00;73.80;;;;;;9175269;19;20086;-64
2022/09/13 06:06:09;;;;;;;30.45;18.30;;;19.10;73.90;;;;;;9171211;19;20352;-66
2022/09/13 06:09:13;;;;;;;28.55;18.00;;;19.10;73.90;;;;;;9169472;19;20379;-65
2022/09/13 06:12:19;;;;;;;34.80;18.83;;;19.10;74.00;;;;;;9173992;19;20082;-63
2022/09/13 06:15:22;;;;;;;27.98;17.23;;;19.10;74.00;;;;;;9172369;19;20402;-64
2022/09/13 06:18:27;;;;;;;34.78;19.13;;;19.10;74.00;;;;;;9172446;19;20078;-64
2022/09/13 06:21:30;;;;;;;30.23;18.42;;;19.10;74.00;;;;;;9173817;19;20017;-62
2022/09/13 06:24:36;;;;;;;34.45;18.15;;;19.10;74.00;;;;;;9173360;19;20035;-63
2022/09/13 06:27:42;;;;;;;38.03;18.77;;;19.20;74.20;;;;;;9170715;19;20546;-64
2022/09/13 06:30:46;;;;;;;33.42;18.15;;;19.20;74.20;;;;;;9177045;19;20098;-66
2022/09/13 06:33:50;;;;;;;31.75;17.05;;;19.20;74.30;;;;;;9177647;19;20488;-67
2022/09/13 06:36:53;;;;;;;;;;;19.20;74.20;;;;;;9168861;19;20042;-62
2022/09/13 06:39:57;;;;;;;29.52;17.25;;;19.20;74.10;;;;;;9176916;19;19915;-63
2022/09/13 06:43:02;;;;;;;28.92;17.27;;;19.20;74.00;;;;;;9174706;19;20018;-63
2022/09/13 06:46:09;;;;;;;34.05;16.85;;;19.20;74.20;;;;;;9177952;19;20098;-63
2022/09/13 06:49:12;;;;;;;34.45;17.50;;;19.20;74.30;;;;;;9176209;19;20023;-62
2022/09/13 06:52:16;;;;;;;25.95;16.05;;;19.20;74.30;;;;;;9174041;19;20024;-62
2022/09/13 06:55:20;;;;;;;27.30;16.05;;;19.30;74.40;;;;;;9174857;19;20003;-63
2022/09/13 06:58:28;;;;;;;26.33;15.23;;;19.30;74.40;;;;;;9183587;19;20351;-64
2022/09/13 07:01:33;;;;;;;30.13;15.93;;;19.30;74.60;;;;;;9185707;19;20086;-63
2022/09/13 07:04:37;;;;;;;27.15;15.60;;;19.30;74.60;;;;;;9183465;19;20068;-63
2022/09/13 07:07:40;;;;;;;28.23;14.90;;;19.40;74.60;;;;;;9184014;19;20018;-64
2022/09/13 07:10:44;;;;;;;27.83;14.88;;;19.40;74.70;;;;;;9184218;19;20050;-63
2022/09/13 07:13:50;;;;;;;;;;;19.40;74.70;;;;;;9184033;19;20015;-63
2022/09/13 07:16:55;;;;;;;24.20;13.98;;;19.50;74.70;;;;;;9181740;19;19946;-63
2022/09/13 07:19:59;;;;;;;24.30;12.50;;;19.50;74.60;;;;;;9184195;19;20007;-63
2022/09/13 07:23:02;;;;;;;24.70;13.82;;;19.50;74.60;;;;;;9184299;19;20016;-64
2022/09/13 07:26:08;;;;;;;34.72;16.13;;;19.50;74.70;;;;;;9182701;19;20047;-63
2022/09/13 07:29:17;;;;;;;26.85;14.70;;;19.50;74.80;;;;;;9183555;19;20018;-63
2022/09/13 07:32:21;;;;;;;25.92;14.20;;;19.50;75.00;;;;;;9178726;19;20111;-62
2022/09/13 07:35:25;;;;;;;23.85;14.00;;;19.60;75.00;;;;;;9177334;19;20662;-63
2022/09/13 07:38:28;;;;;;;22.52;13.82;;;19.60;75.10;;;;;;9178338;19;20077;-63
2022/09/13 07:41:34;;;;;;;25.35;14.48;;;19.60;75.10;;;;;;9175823;19;20472;-64
2022/09/13 07:44:39;;;;;;;22.55;13.95;;;19.60;75.20;;;;;;9173911;19;20080;-64
2022/09/13 07:47:43;;;;;;;23.80;12.57;;;19.60;75.20;;;;;;9178117;19;20021;-64
2022/09/13 07:50:58;;;;;;;23.45;12.80;;;19.60;75.20;;;;;;9179212;19;20038;-63
2022/09/13 07:54:04;;;;;;;21.48;12.55;;;19.70;75.60;;;;;;9180148;19;20019;-64
2022/09/13 07:57:08;;;;;;;24.20;13.10;;;19.70;75.40;;;;;;9172207;19;20014;-63
2022/09/13 08:00:15;;;;;;;25.65;11.90;;;19.70;75.40;;;;;;9181438;19;20466;-64
2022/09/13 08:03:19;;;;;;;24.58;12.05;;;19.70;75.50;;;;;;9179191;19;20017;-62
2022/09/13 08:06:23;;;;;;;19.92;11.25;;;19.70;75.60;;;;;;9177574;19;20517;-63
2022/09/13 08:09:27;;;;;;;21.42;10.90;;;19.80;75.70;;;;;;9170619;19;20030;-63
2022/09/13 08:12:31;;;;;;;15.77;10.45;;;19.80;75.70;;;;;;9175802;19;20015;-63
2022/09/13 08:15:36;;;;;;;16.27;9.95;;;19.80;75.60;;;;;;9180538;19;20016;-63
2022/09/13 08:18:45;;;;;;;15.75;9.57;;;19.80;75.70;;;;;;9176001;19;20018;-64
2022/09/13 08:21:49;;;;;;;18.27;9.63;;;19.90;75.70;;;;;;9173597;19;20406;-63
2022/09/13 08:24:52;;;;;;;17.65;8.30;;;19.90;75.80;;;;;;9173798;19;20018;-63
2022/09/13 08:27:56;;;;;;;15.07;8.10;;;20.00;75.80;;;;;;9172994;19;20109;-63
2022/09/13 08:31:06;;;;;;;13.32;8.35;;;20.00;75.80;;;;;;9173408;19;20053;-62
2022/09/13 08:34:13;;;;;;;16.25;8.23;;;20.00;75.80;;;;;;9171866;19;20025;-63
2022/09/13 08:37:17;;;;;;;11.73;7.13;;;20.10;75.80;;;;;;9168968;19;20023;-64
2022/09/13 08:40:21;;;;;;;11.57;6.22;;;20.20;75.90;;;;;;9174888;19;20026;-63
2022/09/13 08:43:35;;;;;;;13.13;7.07;;;20.20;75.90;;;;;;9179578;19;20019;-63
2022/09/13 08:46:44;;;;;;;10.80;5.88;;;20.30;75.90;;;;;;9179062;19;20066;-63
2022/09/13 08:49:52;;;;;;;10.57;5.63;;;20.40;75.70;;;;;;9176640;19;20011;-65
2022/09/13 08:53:07;;;;;;;9.45;5.38;;;20.50;75.70;;;;;;9179086;19;20023;-65
2022/09/13 08:56:11;;;;;;;;;;;20.50;75.70;;;;;;9178113;19;20022;-64
2022/09/13 08:59:27;;;;;;;11.75;5.15;;;20.60;75.40;;;;;;9181431;19;19919;-65
2022/09/13 09:02:49;;;;;;;10.00;5.57;;;20.70;75.50;;;;;;9175730;19;20035;-66
2022/09/13 09:05:53;;;;;;;14.02;5.45;;;20.70;75.50;;;;;;9172757;19;20014;-66
2022/09/13 09:09:00;;;;;;;;;;;20.80;75.40;;;;;;9167744;19;20018;-66
2022/09/13 09:12:14;;;;;;;10.18;4.88;;;20.80;75.30;;;;;;9175780;19;20012;-65
2022/09/13 09:15:23;;;;;;;7.07;3.80;;;20.90;75.30;;;;;;9171678;19;20014;-65
2022/09/13 09:18:33;;;;;;;7.75;4.20;;;21.00;75.40;;;;;;9173094;19;20030;-65
2022/09/13 09:21:38;;;;;;;10.50;4.47;;;21.10;75.40;;;;;;9172551;19;20018;-65
2022/09/13 09:24:48;;;;;;;6.82;3.88;;;21.10;75.30;;;;;;9173555;19;20387;-65
2022/09/13 09:27:52;;;;;;;4.70;2.70;;;21.20;75.30;;;;;;9172847;19;20445;-65
2022/09/13 09:31:04;;;;;;;3.28;2.55;;;21.30;75.20;;;;;;9173874;19;20019;-65
2022/09/13 09:34:21;;;;;;;5.78;2.97;;;21.40;75.20;;;;;;9174221;19;20487;-66
2022/09/13 09:37:28;;;;;;;8.93;3.08;;;21.50;75.20;;;;;;9164699;19;20463;-66
2022/09/13 09:40:34;;;;;;;6.68;2.60;;;21.60;75.00;;;;;;9168801;19;20408;-66
2022/09/13 09:43:44;;;;;;;3.40;1.50;;;21.80;75.00;;;;;;9174966;19;20011;-65
2022/09/13 09:46:51;;;;;;;6.90;1.60;;;21.90;74.80;;;;;;9171957;19;20106;-65
2022/09/13 09:50:11;;;;;;;4.90;1.77;;;22.00;74.70;;;;;;9171004;19;20098;-65
2022/09/13 09:53:23;;;;;;;7.90;1.52;;;22.10;74.50;;;;;;9170148;19;20023;-66
2022/09/13 09:56:29;;;;;;;4.25;1.30;;;22.20;74.30;;;;;;9167751;19;20738;-66
2022/09/13 09:59:36;;;;;;;2.90;1.30;;;22.30;74.00;;;;;;9170674;19;20031;-67
2022/09/13 10:02:46;;;;;;;6.75;1.40;;;22.40;73.90;;;;;;9170973;19;20479;-67
2022/09/13 10:05:52;;;;;;;5.90;1.33;;;22.50;73.80;;;;;;9171562;19;20019;-67
2022/09/13 10:09:02;;;;;;;2.17;1.38;;;22.50;73.60;;;;;;9176969;19;20026;-68
2022/09/13 10:12:06;;;;;;;11.25;1.35;;;22.60;73.50;;;;;;9177183;19;20010;-67
2022/09/13 10:15:19;;;;;;;2.63;1.50;;;22.60;73.50;;;;;;9176406;19;20022;-67
2022/09/13 10:18:24;;;;;;;9.35;2.38;;;22.70;73.30;;;;;;9175633;19;20025;-68
2022/09/13 10:22:01;;;;;;;5.80;1.20;;;22.80;73.30;;;;;;9173175;19;20034;-67
2022/09/13 10:25:23;;;;;;;2.08;1.40;;;22.90;73.10;;;;;;9176551;19;20485;-67
2022/09/13 10:28:28;;;;;;;8.45;1.80;;;22.90;73.10;;;;;;9176520;19;20018;-67
2022/09/13 10:31:35;;;;;;;4.82;1.10;;;23.00;73.10;;;;;;9175867;19;20026;-67
2022/09/13 10:34:39;;;;;;;5.75;1.10;;;23.10;73.00;;;;;;9165602;19;20665;-64
2022/09/13 10:37:45;;;;;;;5.43;0.98;;;23.10;72.80;;;;;;9173159;19;20091;-65
2022/09/13 10:40:49;;;;;;;2.90;1.00;;;23.30;72.60;;;;;;9178757;19;20051;-65
2022/09/13 10:43:59;;;;;;;4.40;1.10;;;23.40;72.50;;;;;;9179393;19;20817;-66
2022/09/13 10:47:05;;;;;;;6.47;1.00;;;23.50;72.20;;;;;;9178198;19;20423;-65
2022/09/13 10:50:19;;;;;;;5.72;0.68;;;23.50;72.10;;;;;;9178541;19;20014;-65
2022/09/13 10:53:36;;;;;;;5.07;0.90;;;23.70;71.80;;;;;;9173641;19;20091;-66
2022/09/13 10:56:39;;;;;;;1.23;0.60;;;23.80;71.50;;;;;;9168910;19;20018;-65
2022/09/13 10:59:43;;;;;;;1.77;0.95;;;24.00;71.50;;;;;;9171404;19;20026;-66
2022/09/13 11:03:05;;;;;;;6.10;0.82;;;24.10;71.20;;;;;;9178237;19;20109;-64
2022/09/13 11:06:17;;;;;;;7.60;1.10;;;24.30;70.80;;;;;;9175520;19;20741;-64
2022/09/13 11:09:32;;;;;;;1.70;0.80;;;24.40;70.50;;;;;;9172957;19;20074;-65
2022/09/13 11:12:42;;;;;;;6.53;1.25;;;24.50;70.10;;;;;;9177232;19;20018;-64
2022/09/13 11:15:56;;;;;;;7.50;1.20;;;24.70;70.00;;;;;;9174737;19;20007;-65
2022/09/13 11:19:05;;;;;;;;;;;24.80;69.60;;;;;;9175122;19;20027;-65
2022/09/13 11:22:23;;;;;;;5.20;0.90;;;25.00;69.80;;;;;;9176478;19;19936;-65
2022/09/13 11:25:45;;;;;;;7.95;1.05;;;25.00;69.20;;;;;;9173910;19;20136;-64
2022/09/13 11:28:59;;;;;;;3.53;0.75;;;25.10;68.90;;;;;;9175601;19;20010;-65
2022/09/13 11:32:14;;;;;;;4.07;0.70;;;25.10;68.70;;;;;;9176884;19;20018;-65
2022/09/13 11:35:53;;;;;;;4.30;0.82;;;25.10;68.50;;;;;;9171129;19;20082;-64
2022/09/13 11:39:07;;;;;;;4.75;0.75;;;25.10;68.20;;;;;;9174136;19;20018;-65
2022/09/13 11:42:19;;;;;;;;;;;25.20;68.20;;;;;;9177712;19;20015;-65
2022/09/13 11:45:27;;;;;;;6.30;1.08;;;25.20;68.50;;;;;;9174834;19;20343;-65
2022/09/13 11:49:02;;;;;;;3.08;0.98;;;25.30;69.00;;;;;;9170424;19;20026;-66
2022/09/13 11:52:17;;;;;;;4.88;1.60;;;25.30;67.70;;;;;;9176349;19;20081;-65
2022/09/13 11:55:27;;;;;;;1.52;0.75;;;25.40;67.70;;;;;;9174072;19;20474;-65
2022/09/13 11:58:36;;;;;;;3.88;0.90;;;25.50;67.50;;;;;;9175659;19;20010;-65
2022/09/13 12:01:46;;;;;;;5.75;1.00;;;25.60;67.20;;;;;;9174450;19;20051;-65
2022/09/13 12:04:56;;;;;;;3.85;0.98;;;25.70;67.00;;;;;;9174102;19;20479;-65
2022/09/13 12:08:24;;;;;;;3.17;0.82;;;25.80;66.70;;;;;;9167908;19;21003;-66
2022/09/13 12:11:33;;;;;;;3.55;0.70;;;26.00;66.40;;;;;;9171971;19;20045;-65
2022/09/13 12:14:46;;;;;;;2.35;0.60;;;26.00;65.90;;;;;;9175281;19;20018;-65
2022/09/13 12:17:55;;;;;;;3.30;0.70;;;26.10;65.30;;;;;;9172104;19;20018;-65
2022/09/13 12:21:06;;;;;;;5.57;1.08;;;26.20;65.20;;;;;;9174818;19;20359;-65
2022/09/13 12:24:19;;;;;;;1.35;0.60;;;26.30;65.00;;;;;;9175107;19;20022;-65
2022/09/13 12:27:28;;;;;;;1.90;0.70;;;26.30;64.40;;;;;;9177500;19;20014;-65
2022/09/13 12:30:43;;;;;;;5.45;0.70;;;26.40;64.50;;;;;;9173349;19;20015;-66
2022/09/13 12:33:48;;;;;;;6.43;1.05;;;26.40;64.20;;;;;;9173211;19;20496;-65
2022/09/13 12:37:09;;;;;;;1.27;0.47;;;26.50;64.20;;;;;;9164137;19;20022;-65
2022/09/13 12:40:34;;;;;;;5.50;0.90;;;26.50;63.40;;;;;;9175526;19;20015;-65
2022/09/13 12:44:06;;;;;;;4.50;0.68;;;26.50;63.10;;;;;;9170449;19;20023;-64
2022/09/13 12:47:40;;;;;;;2.38;0.60;;;26.60;62.70;;;;;;9167600;19;20018;-66
2022/09/13 12:50:58;;;;;;;4.72;0.60;;;26.60;62.30;;;;;;9170642;19;20056;-65
2022/09/13 12:54:19;;;;;;;4.75;0.70;;;26.60;62.30;;;;;;9172871;19;20782;-65
2022/09/13 12:57:35;;;;;;;6.95;0.85;;;26.60;62.10;;;;;;9168091;19;20014;-65
2022/09/13 13:00:43;;;;;;;2.00;0.52;;;26.50;61.80;;;;;;9171300;19;20022;-65
2022/09/13 13:03:54;;;;;;;5.78;0.70;;;26.50;61.80;;;;;;9172627;19;20031;-65
2022/09/13 13:07:01;;;;;;;2.10;0.50;;;26.50;61.50;;;;;;9173518;19;20361;-66
2022/09/13 13:10:24;;;;;;;2.67;0.50;;;26.40;61.50;;;;;;9167371;19;20037;-65
2022/09/13 13:13:35;;;;;;;3.40;0.90;;;26.50;61.50;;;;;;9166130;19;20025;-65
2022/09/13 13:16:43;;;;;;;3.70;0.60;;;26.50;61.10;;;;;;9168198;19;20731;-66
2022/09/13 13:19:49;;;;;;;1.20;0.38;;;26.40;61.10;;;;;;9172501;19;20018;-64
2022/09/13 13:22:53;;;;;;;2.75;0.50;;;26.50;60.90;;;;;;9173977;19;20089;-65
2022/09/13 13:26:04;;;;;;;6.70;0.70;;;26.50;60.70;;;;;;9173271;19;20018;-65
2022/09/13 13:29:16;;;;;;;5.50;0.50;;;26.50;60.30;;;;;;9173918;19;20014;-65
2022/09/13 13:32:20;;;;;;;4.13;0.73;;;26.50;60.00;;;;;;9174215;19;20074;-65
2022/09/13 13:35:33;;;;;;;3.40;0.45;;;26.40;60.10;;;;;;9163427;19;20050;-63
2022/09/13 13:38:48;;;;;;;3.78;0.77;;;26.40;59.70;;;;;;9166669;19;20031;-64
2022/09/13 13:41:55;;;;;;;4.00;0.80;;;26.40;59.60;;;;;;9168713;19;20025;-65
2022/09/13 13:45:22;;;;;;;4.38;0.90;;;26.40;59.80;;;;;;9168329;19;20121;-65
2022/09/13 13:48:38;;;;;;;5.63;0.60;;;26.40;59.30;;;;;;9166945;19;20027;-65
2022/09/13 13:51:43;;;;;;;4.50;0.60;;;26.30;59.30;;;;;;9167470;19;20023;-64
2022/09/13 13:55:03;;;;;;;6.72;1.77;;;26.30;59.50;;;;;;9169345;19;20022;-65
2022/09/13 13:58:23;;;;;;;1.85;0.50;;;26.30;58.90;;;;;;9166299;19;20037;-63
2022/09/13 14:01:29;;;;;;;2.92;0.77;;;26.30;58.90;;;;;;9176022;19;20490;-64
2022/09/13 14:04:45;;;;;;;2.53;0.60;;;26.30;59.10;;;;;;9175835;19;20070;-64
2022/09/13 14:08:27;;;;;;;4.22;0.85;;;26.30;58.80;;;;;;9178618;19;20021;-63
2022/09/13 14:11:43;;;;;;;1.70;0.50;;;26.30;58.60;;;;;;9175876;19;20003;-63
2022/09/13 14:15:04;;;;;;;4.57;0.85;;;26.30;58.80;;;;;;9178339;19;20030;-63
2022/09/13 14:18:25;;;;;;;4.10;0.70;;;26.30;58.50;;;;;;9174563;19;20042;-64
2022/09/13 14:21:29;;;;;;;1.95;0.68;;;26.30;58.40;;;;;;9176676;19;20041;-65
2022/09/13 14:24:41;;;;;;;6.00;0.95;;;26.30;58.60;;;;;;9178200;19;20011;-64
2022/09/13 14:27:47;;;;;;;2.63;0.50;;;26.20;58.30;;;;;;9177511;19;20419;-64
2022/09/13 14:30:55;;;;;;;3.85;0.50;;;26.20;58.40;;;;;;9177912;19;20019;-65
2022/09/13 14:33:59;;;;;;;4.30;0.77;;;26.20;58.10;;;;;;9177974;19;20006;-65
2022/09/13 14:37:04;;;;;;;;;;;26.10;58.10;;;;;;9171972;19;20015;-64
2022/09/13 14:40:18;;;;;;;2.40;0.60;;;26.20;58.60;;;;;;9177458;19;19926;-64
2022/09/13 14:43:25;;;;;;;2.05;0.57;;;26.10;58.20;;;;;;9177296;19;20404;-64
2022/09/13 14:46:34;;;;;;;4.50;0.60;;;26.10;58.30;;;;;;9176989;19;20020;-64
2022/09/13 14:49:46;;;;;;;3.15;0.60;;;26.10;58.20;;;;;;9177035;19;20050;-65
2022/09/13 14:52:54;;;;;;;;;;;26.00;57.90;;;;;;9182635;19;20026;-65
2022/09/13 14:56:03;;;;;;;2.78;0.77;;;26.00;58.20;;;;;;9179212;19;19923;-64
2022/09/13 14:59:15;;;;;;;1.92;0.55;;;26.00;58.00;;;;;;9179600;19;20941;-64
2022/09/13 15:02:22;;;;;;;2.10;0.60;;;25.90;57.50;;;;;;9181825;19;20011;-64
2022/09/13 15:05:28;;;;;;;1.23;0.47;;;25.90;57.60;;;;;;9184706;19;20352;-64
2022/09/13 15:08:46;;;;;;;3.92;0.55;;;25.80;57.30;;;;;;9179640;19;20022;-64
2022/09/13 15:12:02;;;;;;;8.35;0.70;;;25.70;56.90;;;;;;9180324;19;20086;-64
2022/09/13 15:15:32;;;;;;;4.28;0.88;;;25.60;56.80;;;;;;9181299;19;20031;-64
2022/09/13 15:18:36;;;;;;;4.05;0.60;;;25.50;56.70;;;;;;9175159;19;20077;-64
2022/09/13 15:21:40;;;;;;;6.63;0.80;;;25.50;57.10;;;;;;9175094;19;20083;-64
2022/09/13 15:24:47;;;;;;;3.28;0.70;;;25.40;57.00;;;;;;9173077;19;20130;-64
2022/09/13 15:27:54;;;;;;;2.45;0.80;;;25.30;56.90;;;;;;9172304;19;20023;-65
2022/09/13 15:31:00;;;;;;;2.88;0.70;;;25.30;56.90;;;;;;9174413;19;20074;-65
2022/09/13 15:34:23;;;;;;;8.52;0.77;;;25.20;56.80;;;;;;9170622;19;20020;-64
2022/09/13 15:37:34;;;;;;;5.00;0.80;;;25.00;56.30;;;;;;9167578;19;20967;-65
2022/09/13 15:40:43;;;;;;;7.43;0.82;;;25.00;56.70;;;;;;9171033;19;20684;-65
2022/09/13 15:43:51;;;;;;;4.45;1.00;;;24.80;56.70;;;;;;9175285;19;20029;-66
2022/09/13 15:46:56;;;;;;;6.38;1.27;;;24.70;56.70;;;;;;9165457;19;20027;-65
2022/09/13 15:50:00;;;;;;;4.43;1.05;;;24.60;56.80;;;;;;9172374;19;20022;-64
2022/09/13 15:53:11;;;;;;;7.80;1.10;;;24.50;56.90;;;;;;9172255;19;20081;-64
2022/09/13 15:56:17;;;;;;;4.85;0.95;;;24.40;56.90;;;;;;9170606;19;20018;-64
2022/09/13 15:59:23;;;;;;;5.55;0.50;;;24.40;56.90;;;;;;9176933;19;20007;-64
2022/09/13 16:02:29;;;;;;;3.13;0.80;;;24.30;57.50;;;;;;9181822;19;20504;-65
2022/09/13 16:05:35;;;;;;;4.45;1.20;;;24.20;56.90;;;;;;9173146;19;20015;-69
2022/09/13 16:08:40;;;;;;;2.88;0.80;;;24.10;56.90;;;;;;9171918;19;20022;-69
2022/09/13 16:11:44;;;;;;;4.00;0.90;;;24.00;56.90;;;;;;9166854;19;20014;-69
2022/09/13 16:14:49;;;;;;;;;;;24.00;57.00;;;;;;9167515;19;20051;-65